Time;durP1;ratioP1;P1;durP2;ratioP2;P2;SDS_P1;SDS_P2;PMS_P1;PMS_P2;Temp;Humidity;BMP_temperature;BMP_pressure;BME280_temperature;BME280_humidity;BME280_pressure;Samples;Min_cycle;Max_cycle;Signal;HPM_P1;HPM_P2
2022/11/10 00:00:25;;;;;;;17.02;3.42;;;10.20;99.90;;;;;;5034448;28;20045;-62
2022/11/10 00:02:51;;;;;;;14.98;3.40;;;10.40;99.90;;;;;;5035666;28;20044;-61
2022/11/10 00:05:16;;;;;;;8.85;2.95;;;10.30;99.90;;;;;;5034069;28;20088;-62
2022/11/10 00:07:42;;;;;;;16.95;3.35;;;10.10;99.90;;;;;;5035349;28;20049;-62
2022/11/10 00:10:08;;;;;;;20.55;3.35;;;10.30;99.90;;;;;;5034580;28;20037;-62
2022/11/10 00:12:34;;;;;;;13.02;4.63;;;10.20;99.90;;;;;;5034433;28;21822;-62
2022/11/10 00:17:44;;;;;;;13.30;4.05;;;10.20;99.90;;;;;;5035707;28;20045;-62
2022/11/10 00:20:11;;;;;;;15.70;3.53;;;10.20;99.90;;;;;;5034478;28;20045;-62
2022/11/10 00:22:38;;;;;;;15.70;4.22;;;10.20;99.90;;;;;;5034102;28;20045;-62
2022/11/10 00:25:04;;;;;;;12.15;3.78;;;10.10;99.90;;;;;;5034332;28;20513;-62
2022/11/10 00:27:33;;;;;;;13.63;4.32;;;10.20;99.90;;;;;;5034071;28;20052;-62
2022/11/10 00:29:59;;;;;;;13.32;3.80;;;10.10;99.90;;;;;;5034250;28;20522;-62
2022/11/10 00:32:25;;;;;;;19.83;4.43;;;10.00;99.90;;;;;;5034104;28;20046;-62
2022/11/10 00:34:51;;;;;;;15.82;4.13;;;10.00;99.90;;;;;;5035147;28;20073;-61
2022/11/10 00:37:17;;;;;;;16.83;4.72;;;10.00;99.90;;;;;;5035103;28;20041;-62
2022/11/10 00:39:42;;;;;;;13.38;3.92;;;9.80;99.90;;;;;;5035122;28;20103;-62
2022/11/10 00:42:08;;;;;;;15.73;4.07;;;9.90;99.90;;;;;;5035370;28;20041;-62
2022/11/10 00:44:34;;;;;;;14.32;3.92;;;10.00;99.90;;;;;;5034911;28;20117;-62
2022/11/10 00:46:59;;;;;;;13.73;3.95;;;10.00;99.90;;;;;;5047565;28;20558;-62
2022/11/10 00:49:25;;;;;;;20.65;5.63;;;9.90;99.90;;;;;;5033676;28;20403;-63
2022/11/10 00:51:51;;;;;;;14.93;4.03;;;9.80;99.90;;;;;;5034850;28;20510;-62
2022/11/10 00:54:17;;;;;;;16.10;4.40;;;9.90;99.90;;;;;;5033737;28;20049;-62
2022/11/10 00:56:42;;;;;;;14.38;4.35;;;9.90;99.90;;;;;;5033487;28;20041;-62
2022/11/10 00:59:08;;;;;;;20.33;4.45;;;;;;;;;;5034920;28;20044;-64
2022/11/10 01:01:34;;;;;;;13.80;4.53;;;10.00;99.90;;;;;;5033648;28;20077;-63
2022/11/10 01:03:59;;;;;;;19.55;4.18;;;10.00;99.90;;;;;;5033163;28;20061;-61
2022/11/10 01:06:25;;;;;;;17.58;4.25;;;9.90;99.90;;;;;;5034638;28;20111;-62
2022/11/10 01:08:51;;;;;;;14.32;4.70;;;9.90;99.90;;;;;;5034222;28;20049;-63
2022/11/10 01:11:19;;;;;;;24.42;5.80;;;9.70;99.90;;;;;;5040604;28;20044;-62
2022/11/10 01:13:45;;;;;;;9.55;3.95;;;9.80;99.90;;;;;;5042038;28;20041;-62
2022/11/10 01:16:18;;;;;;;20.20;4.60;;;9.70;99.90;;;;;;5048450;28;20111;-61
2022/11/10 01:18:49;;;;;;;17.85;4.20;;;10.00;99.90;;;;;;5034361;28;20045;-62
2022/11/10 01:21:14;;;;;;;16.55;4.25;;;9.90;99.90;;;;;;5047293;28;20395;-62
2022/11/10 01:23:40;;;;;;;17.60;4.75;;;9.60;99.90;;;;;;5033016;28;20037;-61
2022/11/10 01:26:06;;;;;;;16.77;5.82;;;10.10;99.90;;;;;;5032818;28;20052;-62
2022/11/10 01:28:34;;;;;;;16.27;4.40;;;9.80;99.90;;;;;;5034107;28;20399;-62
2022/11/10 01:31:05;;;;;;;16.80;6.43;;;9.70;99.90;;;;;;5034262;28;20037;-62
2022/11/10 01:33:31;;;;;;;20.75;4.07;;;9.80;99.90;;;;;;5034150;28;20048;-62
2022/11/10 01:35:56;;;;;;;20.88;4.28;;;9.80;99.90;;;;;;5033989;28;20041;-61
2022/11/10 01:38:22;;;;;;;19.80;4.63;;;9.80;99.90;;;;;;5033804;28;20045;-62
2022/11/10 01:40:48;;;;;;;18.70;4.72;;;9.80;99.90;;;;;;5034149;28;20030;-63
2022/11/10 01:43:14;;;;;;;11.38;4.15;;;9.80;99.90;;;;;;5036937;28;20044;-62
2022/11/10 01:45:53;;;;;;;13.98;4.18;;;10.00;99.90;;;;;;5043166;28;20048;-61
2022/11/10 01:48:50;;;;;;;17.27;5.75;;;9.80;99.90;;;;;;5033612;28;20042;-61
2022/11/10 01:51:26;;;;;;;16.67;4.28;;;9.80;99.90;;;;;;5032463;28;20048;-61
2022/11/10 01:53:58;;;;;;;12.70;3.90;;;9.80;99.90;;;;;;5033811;28;20052;-62
2022/11/10 01:56:26;;;;;;;13.73;4.90;;;9.80;99.90;;;;;;5033651;28;20514;-62
2022/11/10 01:58:59;;;;;;;13.13;4.38;;;10.00;99.90;;;;;;5035379;28;20049;-62
2022/11/10 02:01:25;;;;;;;23.20;5.00;;;9.80;99.90;;;;;;5033691;28;20037;-61
2022/11/10 02:04:09;;;;;;;16.48;4.72;;;9.60;99.90;;;;;;5031871;28;20174;-62
2022/11/10 02:06:40;;;;;;;20.00;4.03;;;9.80;99.90;;;;;;5033407;28;20038;-62
2022/11/10 02:09:06;;;;;;;21.77;5.32;;;9.90;99.90;;;;;;5033237;28;20094;-62
2022/11/10 02:11:33;;;;;;;11.77;4.07;;;10.00;99.90;;;;;;5033284;28;20116;-62
2022/11/10 02:14:00;;;;;;;19.02;4.72;;;9.80;99.90;;;;;;5033170;28;20487;-62
2022/11/10 02:16:25;;;;;;;18.45;4.07;;;9.90;99.90;;;;;;5033509;28;20037;-62
2022/11/10 02:18:51;;;;;;;18.08;4.10;;;9.90;99.90;;;;;;5033373;28;20175;-62
2022/11/10 02:21:19;;;;;;;18.73;5.18;;;9.80;99.90;;;;;;5050241;28;20055;-62
2022/11/10 02:23:47;;;;;;;13.93;4.57;;;10.10;99.90;;;;;;5049532;28;20495;-61
2022/11/10 02:26:15;;;;;;;17.00;3.92;;;9.90;99.90;;;;;;5040810;28;20037;-63
2022/11/10 02:28:40;;;;;;;14.60;3.88;;;9.80;99.90;;;;;;5041842;28;20056;-62
2022/11/10 02:31:08;;;;;;;21.63;5.28;;;9.90;99.90;;;;;;5037025;28;20038;-61
2022/11/10 02:33:34;;;;;;;19.70;4.32;;;9.90;99.90;;;;;;5033369;28;20109;-62
2022/11/10 02:36:00;;;;;;;19.75;4.60;;;;;;;;;;5032775;28;20033;-63
2022/11/10 02:38:25;;;;;;;20.05;4.53;;;10.10;99.90;;;;;;5045659;28;20491;-62
2022/11/10 02:40:51;;;;;;;20.50;4.65;;;10.20;99.90;;;;;;5033042;28;20049;-62
2022/11/10 02:43:18;;;;;;;13.27;3.80;;;10.10;99.90;;;;;;5031624;28;20088;-62
2022/11/10 02:45:44;;;;;;;15.68;4.82;;;10.30;99.90;;;;;;5032941;28;20411;-62
2022/11/10 02:48:11;;;;;;;19.00;3.92;;;10.10;99.90;;;;;;5032775;28;20073;-61
2022/11/10 02:50:37;;;;;;;14.45;4.05;;;10.20;99.90;;;;;;5031555;28;20045;-62
2022/11/10 02:53:02;;;;;;;16.52;4.95;;;10.20;99.90;;;;;;5031929;28;20124;-62
2022/11/10 02:55:28;;;;;;;20.13;4.95;;;;;;;;;;5046704;28;20120;-63
2022/11/10 02:57:54;;;;;;;18.58;4.68;;;10.20;99.90;;;;;;5031867;28;20060;-62
2022/11/10 03:00:20;;;;;;;17.92;4.95;;;9.90;99.90;;;;;;5036764;28;20079;-62
2022/11/10 03:02:46;;;;;;;14.55;4.95;;;10.00;99.90;;;;;;5052073;28;20045;-62
2022/11/10 03:05:11;;;;;;;14.15;4.40;;;10.10;99.90;;;;;;5036433;28;20097;-62
2022/11/10 03:07:37;;;;;;;20.33;5.47;;;10.10;99.90;;;;;;5032859;28;20041;-62
2022/11/10 03:10:05;;;;;;;24.13;5.43;;;9.90;99.90;;;;;;5038769;28;20042;-62
2022/11/10 03:12:30;;;;;;;17.88;5.25;;;10.10;99.90;;;;;;5038753;28;20126;-62
2022/11/10 03:14:56;;;;;;;20.90;5.85;;;10.10;99.90;;;;;;5040588;28;20477;-61
2022/11/10 03:17:22;;;;;;;22.02;6.43;;;9.80;99.90;;;;;;5032679;28;20037;-63
2022/11/10 03:19:48;;;;;;;19.27;6.43;;;10.00;99.90;;;;;;5032722;28;20046;-62
2022/11/10 03:22:13;;;;;;;24.17;6.63;;;10.00;99.90;;;;;;5033707;28;20049;-62
2022/11/10 03:24:39;;;;;;;23.08;5.95;;;10.00;99.90;;;;;;5046445;28;20055;-61
2022/11/10 03:27:05;;;;;;;19.67;5.90;;;10.00;99.90;;;;;;5036590;28;20037;-62
2022/11/10 03:29:30;;;;;;;20.92;6.60;;;10.10;99.90;;;;;;5049941;28;20042;-62
2022/11/10 03:31:56;;;;;;;17.23;5.95;;;9.90;99.90;;;;;;5036631;28;20117;-62
2022/11/10 03:34:22;;;;;;;21.80;7.25;;;10.10;99.90;;;;;;5034937;28;20049;-63
2022/11/10 03:36:47;;;;;;;25.40;6.85;;;10.00;99.90;;;;;;5035310;28;20052;-62
2022/11/10 03:39:13;;;;;;;19.90;6.57;;;10.10;99.90;;;;;;5036163;28;20045;-62
2022/11/10 03:41:39;;;;;;;22.20;8.10;;;;;;;;;;5036140;28;20041;-63
2022/11/10 03:44:04;;;;;;;28.75;6.28;;;9.90;99.90;;;;;;5034823;28;20506;-62
2022/11/10 03:46:30;;;;;;;26.50;9.57;;;10.10;99.90;;;;;;5036112;28;20115;-62
2022/11/10 03:48:56;;;;;;;26.83;7.57;;;10.00;99.90;;;;;;5036058;28;20038;-61
2022/11/10 03:51:21;;;;;;;21.90;7.20;;;10.00;99.90;;;;;;5037686;28;20091;-62
2022/11/10 03:53:47;;;;;;;21.92;7.10;;;10.10;99.90;;;;;;5046966;28;20385;-62
2022/11/10 03:56:13;;;;;;;21.63;6.38;;;;;;;;;;5050027;28;20037;-62
2022/11/10 03:58:39;;;;;;;23.33;8.13;;;10.00;99.90;;;;;;5042938;28;20053;-61
2022/11/10 04:01:05;;;;;;;21.73;6.68;;;10.00;99.90;;;;;;5042773;28;20025;-62
2022/11/10 04:03:30;;;;;;;31.92;8.13;;;10.10;99.90;;;;;;5049461;28;20501;-62
2022/11/10 04:08:58;;;;;;;22.42;6.47;;;10.20;99.90;;;;;;5039534;28;20415;-63
2022/11/10 04:16:53;;;;;;;32.35;7.93;;;10.20;99.90;;;;;;5038400;28;20427;-61
2022/11/10 04:19:19;;;;;;;19.48;6.25;;;10.10;99.90;;;;;;5034192;28;20041;-62
2022/11/10 04:21:44;;;;;;;22.27;6.10;;;10.10;99.90;;;;;;5034038;28;20119;-62
2022/11/10 04:24:11;;;;;;;28.00;8.23;;;10.10;99.90;;;;;;5034093;28;20053;-62
2022/11/10 04:26:37;;;;;;;25.38;6.63;;;10.20;99.90;;;;;;5035531;28;20121;-61
2022/11/10 04:29:05;;;;;;;22.60;5.65;;;10.10;99.90;;;;;;5033965;28;20407;-61
2022/11/10 04:31:34;;;;;;;26.88;7.00;;;10.10;99.90;;;;;;5034285;28;20085;-62
2022/11/10 04:34:00;;;;;;;22.58;6.32;;;;;;;;;;5047836;28;20033;-63
2022/11/10 04:36:28;;;;;;;19.33;5.90;;;10.20;99.90;;;;;;5033897;28;20394;-61
2022/11/10 04:38:54;;;;;;;21.85;5.82;;;10.20;99.90;;;;;;5033902;28;20067;-62
2022/11/10 04:41:21;;;;;;;22.42;6.38;;;10.50;99.90;;;;;;5034103;28;20041;-62
2022/11/10 04:43:47;;;;;;;21.50;5.97;;;10.30;99.90;;;;;;5035060;28;20037;-62
2022/11/10 04:46:25;;;;;;;18.80;5.20;;;10.30;99.90;;;;;;5034857;28;20540;-62
2022/11/10 04:48:51;;;;;;;20.75;5.45;;;10.30;99.90;;;;;;5034955;28;20569;-62
2022/11/10 04:51:18;;;;;;;19.60;6.18;;;;;;;;;;5034973;28;20049;-62
2022/11/10 04:53:44;;;;;;;18.90;5.45;;;10.40;99.90;;;;;;5034884;28;20044;-61
2022/11/10 04:56:16;;;;;;;25.67;5.63;;;10.50;99.90;;;;;;5033465;28;20033;-62
2022/11/10 04:58:42;;;;;;;22.85;5.00;;;10.10;99.90;;;;;;5033549;28;20053;-62
2022/11/10 05:01:11;;;;;;;17.25;4.35;;;10.40;99.90;;;;;;5034673;28;20044;-61
2022/11/10 05:03:36;;;;;;;21.98;5.03;;;10.30;99.90;;;;;;5034627;28;20045;-61
2022/11/10 05:06:02;;;;;;;24.40;5.22;;;10.30;99.90;;;;;;5033347;28;20042;-61
2022/11/10 05:08:27;;;;;;;18.52;5.18;;;10.40;99.90;;;;;;5038300;28;20120;-62
2022/11/10 05:10:53;;;;;;;19.30;5.40;;;10.30;99.90;;;;;;5034740;28;20049;-61
2022/11/10 05:13:19;;;;;;;20.05;5.60;;;;;;;;;;5034373;28;20037;-63
2022/11/10 05:15:44;;;;;;;18.20;5.40;;;10.40;99.90;;;;;;5034395;28;20073;-62
2022/11/10 05:18:10;;;;;;;31.42;7.20;;;10.30;99.90;;;;;;5033429;28;20103;-62
2022/11/10 05:20:35;;;;;;;17.48;5.65;;;10.30;99.90;;;;;;5040084;28;20037;-62
2022/11/10 05:25:45;;;;;;;20.58;4.82;;;10.50;99.90;;;;;;5034561;28;20053;-62
2022/11/10 05:28:11;;;;;;;21.73;6.03;;;10.30;99.90;;;;;;5033953;28;20045;-62
2022/11/10 05:30:38;;;;;;;25.05;5.82;;;10.30;99.90;;;;;;5034365;28;20384;-61
2022/11/10 05:33:05;;;;;;;24.33;7.38;;;10.00;99.90;;;;;;5032836;28;20125;-62
2022/11/10 05:35:31;;;;;;;26.80;6.25;;;10.20;99.90;;;;;;5032821;28;20041;-62
2022/11/10 05:37:56;;;;;;;25.17;5.38;;;10.30;99.90;;;;;;5032624;28;20045;-62
2022/11/10 05:40:22;;;;;;;22.67;5.65;;;10.20;99.90;;;;;;5034022;28;20041;-62
2022/11/10 05:42:53;;;;;;;24.33;6.05;;;10.40;99.90;;;;;;5033754;28;20152;-62
2022/11/10 05:45:24;;;;;;;20.42;5.88;;;10.10;99.90;;;;;;5032863;28;20041;-62
2022/11/10 05:47:50;;;;;;;25.75;5.47;;;10.40;99.90;;;;;;5033381;28;20068;-62
2022/11/10 05:50:18;;;;;;;27.77;5.82;;;10.30;99.90;;;;;;5033978;28;20112;-62
2022/11/10 05:52:46;;;;;;;26.23;6.90;;;10.30;99.90;;;;;;5033652;28;20045;-63
2022/11/10 05:55:12;;;;;;;24.85;6.25;;;10.00;99.90;;;;;;5039108;28;20086;-62
2022/11/10 05:57:41;;;;;;;24.60;6.45;;;10.20;99.90;;;;;;5039852;28;20492;-61
2022/11/10 06:00:07;;;;;;;29.42;6.63;;;10.20;99.90;;;;;;5052610;28;20029;-62
2022/11/10 06:02:32;;;;;;;21.77;6.20;;;10.10;99.90;;;;;;5041170;28;20384;-62
2022/11/10 06:04:58;;;;;;;20.27;6.95;;;10.30;99.90;;;;;;5033305;28;20183;-62
2022/11/10 06:07:23;;;;;;;19.63;6.03;;;10.20;99.90;;;;;;5032259;28;20415;-62
2022/11/10 06:09:49;;;;;;;20.98;6.43;;;10.20;99.90;;;;;;5036112;28;20376;-62
2022/11/10 06:12:14;;;;;;;22.98;6.28;;;10.20;99.90;;;;;;5033568;28;20120;-62
2022/11/10 06:14:40;;;;;;;27.63;6.90;;;10.30;99.90;;;;;;5033466;28;20044;-62
2022/11/10 06:17:06;;;;;;;24.55;6.50;;;10.20;99.90;;;;;;5033480;28;20041;-62
2022/11/10 06:19:31;;;;;;;22.35;6.15;;;10.20;99.90;;;;;;5032032;28;20045;-62
2022/11/10 06:21:57;;;;;;;21.20;6.32;;;10.20;99.90;;;;;;5032187;28;20040;-62
2022/11/10 06:24:22;;;;;;;22.65;5.85;;;10.20;99.90;;;;;;5033258;28;20048;-62
2022/11/10 06:26:48;;;;;;;21.20;6.32;;;10.30;99.90;;;;;;5033289;28;20045;-63
2022/11/10 06:29:13;;;;;;;23.83;6.97;;;10.20;99.90;;;;;;5035893;28;20057;-63
2022/11/10 06:31:39;;;;;;;22.33;6.13;;;10.20;99.90;;;;;;5043194;28;20037;-62
2022/11/10 06:34:04;;;;;;;25.52;6.55;;;10.20;99.90;;;;;;5047756;28;20040;-62
2022/11/10 06:36:30;;;;;;;29.00;5.75;;;10.40;99.90;;;;;;5045051;28;20065;-62
2022/11/10 06:38:55;;;;;;;21.92;5.82;;;10.30;99.90;;;;;;5033022;28;20037;-62
2022/11/10 06:41:21;;;;;;;23.50;6.13;;;10.30;99.90;;;;;;5031695;28;20438;-62
2022/11/10 06:43:46;;;;;;;26.38;6.07;;;10.30;99.90;;;;;;5031685;28;20049;-63
2022/11/10 06:46:12;;;;;;;16.92;6.40;;;10.40;99.90;;;;;;5033001;28;20033;-62
2022/11/10 06:48:39;;;;;;;16.80;5.40;;;10.30;99.90;;;;;;5031608;28;20044;-62
2022/11/10 06:51:04;;;;;;;21.13;5.60;;;10.20;99.90;;;;;;5032937;28;20184;-63
2022/11/10 06:53:30;;;;;;;21.13;6.45;;;10.20;99.90;;;;;;5040574;28;20061;-63
2022/11/10 06:55:56;;;;;;;27.38;5.40;;;10.10;99.90;;;;;;5032667;28;20124;-62
2022/11/10 06:58:22;;;;;;;29.00;8.13;;;10.50;99.90;;;;;;5014887;28;20411;-62
2022/11/10 07:00:47;;;;;;;24.23;6.68;;;10.30;99.90;;;;;;5035754;28;20037;-62
2022/11/10 07:03:14;;;;;;;25.20;6.47;;;10.50;99.90;;;;;;5039147;28;20041;-62
2022/11/10 07:05:40;;;;;;;27.15;6.90;;;;;;;;;;5020039;28;20504;-63
2022/11/10 07:08:14;;;;;;;26.85;6.35;;;10.20;99.90;;;;;;5037977;28;20076;-62
2022/11/10 07:10:44;;;;;;;25.95;6.55;;;10.20;99.90;;;;;;5043230;28;20156;-62
2022/11/10 07:13:10;;;;;;;26.55;6.78;;;10.40;99.90;;;;;;5036089;28;20061;-62
2022/11/10 07:15:36;;;;;;;22.17;7.72;;;10.30;99.90;;;;;;5048874;28;20033;-61
2022/11/10 07:18:03;;;;;;;25.60;6.93;;;10.30;99.90;;;;;;5045043;28;20069;-60
2022/11/10 07:20:30;;;;;;;21.08;6.60;;;10.30;99.90;;;;;;5039284;28;20036;-62
2022/11/10 07:23:06;;;;;;;21.23;7.25;;;10.60;99.90;;;;;;5044247;28;20450;-62
2022/11/10 07:25:34;;;;;;;23.35;7.55;;;10.60;99.90;;;;;;5042655;28;20046;-61
2022/11/10 07:28:03;;;;;;;20.42;6.53;;;10.50;99.90;;;;;;5044229;28;20091;-61
2022/11/10 07:30:31;;;;;;;25.17;7.05;;;10.50;99.90;;;;;;5040115;28;20395;-61
2022/11/10 07:33:01;;;;;;;25.33;6.50;;;10.60;99.90;;;;;;5043793;28;20041;-62
2022/11/10 07:35:27;;;;;;;29.05;6.82;;;10.50;99.90;;;;;;5036049;28;20025;-61
2022/11/10 07:37:54;;;;;;;27.67;9.05;;;10.40;99.90;;;;;;5048780;28;20037;-62
2022/11/10 07:40:21;;;;;;;26.65;6.97;;;10.50;99.90;;;;;;5045216;28;20033;-62
2022/11/10 07:42:46;;;;;;;29.80;7.47;;;10.40;99.90;;;;;;5045546;28;20052;-62
2022/11/10 07:45:12;;;;;;;27.85;7.78;;;10.40;99.90;;;;;;5044512;28;20383;-63
2022/11/10 07:47:38;;;;;;;32.35;7.75;;;10.30;99.90;;;;;;5038902;28;20190;-62
2022/11/10 07:50:03;;;;;;;23.80;7.75;;;10.30;99.90;;;;;;5036101;28;20037;-62
2022/11/10 07:52:29;;;;;;;29.35;7.35;;;10.40;99.90;;;;;;5034631;28;20446;-62
2022/11/10 07:54:54;;;;;;;22.67;7.55;;;10.50;99.90;;;;;;5037728;28;20056;-62
2022/11/10 07:57:20;;;;;;;22.48;7.43;;;10.60;99.90;;;;;;5037063;28;20479;-62
2022/11/10 07:59:46;;;;;;;18.33;6.85;;;10.50;99.90;;;;;;5038149;28;20397;-61
2022/11/10 08:02:11;;;;;;;26.08;7.47;;;10.60;99.90;;;;;;5036755;28;20403;-62
2022/11/10 08:04:37;;;;;;;20.52;7.70;;;;;;;;;;5035136;28;20041;-64
2022/11/10 08:07:03;;;;;;;25.95;7.50;;;11.00;99.90;;;;;;5035084;28;20046;-64
2022/11/10 08:09:28;;;;;;;18.95;7.07;;;11.40;99.90;;;;;;5036043;28;20546;-64
2022/11/10 08:11:54;;;;;;;21.98;6.93;;;11.30;99.90;;;;;;5034756;28;20449;-64
2022/11/10 08:14:19;;;;;;;19.52;7.20;;;11.40;99.90;;;;;;5036422;28;20499;-62
2022/11/10 08:16:45;;;;;;;14.15;5.68;;;11.60;99.90;;;;;;5047583;28;20041;-63
2022/11/10 08:19:11;;;;;;;19.92;5.75;;;11.70;99.90;;;;;;5044373;28;20052;-63
2022/11/10 08:21:37;;;;;;;18.23;6.47;;;;;;;;;;5037958;28;20403;-63
2022/11/10 08:24:02;;;;;;;18.50;6.13;;;12.50;99.90;;;;;;5045406;28;20561;-63
2022/11/10 08:26:28;;;;;;;24.63;5.57;;;12.40;99.90;;;;;;5038549;28;20048;-61
2022/11/10 08:28:54;;;;;;;17.85;5.50;;;;;;;;;;5035140;28;20033;-65
2022/11/10 08:31:20;;;;;;;21.48;5.90;;;12.30;99.90;;;;;;5034463;28;20045;-63
2022/11/10 08:33:45;;;;;;;23.00;7.10;;;12.30;99.90;;;;;;5044835;28;20075;-63
2022/11/10 08:36:11;;;;;;;25.35;5.93;;;12.60;99.90;;;;;;5049630;28;20029;-63
2022/11/10 08:38:36;;;;;;;19.45;5.30;;;12.20;99.90;;;;;;5045085;28;20044;-63
2022/11/10 08:41:02;;;;;;;19.20;6.82;;;12.20;99.90;;;;;;5035218;28;20094;-63
2022/11/10 08:43:27;;;;;;;24.30;6.25;;;12.10;99.90;;;;;;5045924;28;20391;-63
2022/11/10 08:45:55;;;;;;;22.90;8.43;;;12.20;99.90;;;;;;5033907;28;20411;-63
2022/11/10 08:48:21;;;;;;;23.60;5.60;;;12.00;99.90;;;;;;5034991;28;20048;-63
2022/11/10 08:50:48;;;;;;;20.75;5.43;;;11.80;99.90;;;;;;5034930;28;20041;-64
2022/11/10 08:53:23;;;;;;;18.08;6.63;;;11.90;99.90;;;;;;5035113;28;20026;-63
2022/11/10 08:55:49;;;;;;;15.82;4.28;;;12.10;99.90;;;;;;5033672;28;20077;-63
2022/11/10 08:58:19;;;;;;;23.52;5.63;;;12.00;99.90;;;;;;5034940;28;20080;-63
2022/11/10 09:00:45;;;;;;;20.23;5.68;;;12.00;99.90;;;;;;5034887;28;20041;-63
2022/11/10 09:03:19;;;;;;;21.65;5.88;;;12.00;99.90;;;;;;5034707;28;20045;-63
2022/11/10 09:05:45;;;;;;;20.85;6.25;;;12.20;99.90;;;;;;5033298;28;20053;-63
2022/11/10 09:08:12;;;;;;;23.83;7.07;;;12.30;99.90;;;;;;5036905;28;20041;-63
2022/11/10 09:10:46;;;;;;;24.73;6.57;;;12.40;99.90;;;;;;5033321;28;20044;-63
2022/11/10 09:13:14;;;;;;;19.20;6.97;;;12.50;99.90;;;;;;5033511;28;20167;-63
2022/11/10 09:15:41;;;;;;;21.45;6.22;;;12.40;99.90;;;;;;5033239;28;20041;-63
2022/11/10 09:18:08;;;;;;;21.05;6.35;;;12.60;99.90;;;;;;5034390;28;20125;-64
2022/11/10 09:20:36;;;;;;;21.75;6.68;;;12.80;99.90;;;;;;5034782;28;20476;-63
2022/11/10 09:23:10;;;;;;;19.33;6.43;;;12.80;99.90;;;;;;5033909;28;20043;-63
2022/11/10 09:25:37;;;;;;;22.58;5.65;;;13.00;99.90;;;;;;5032838;28;20060;-63
2022/11/10 09:28:03;;;;;;;20.05;5.00;;;13.00;99.90;;;;;;5032888;28;20054;-63
2022/11/10 09:30:29;;;;;;;13.43;5.18;;;13.00;99.90;;;;;;5045851;28;20162;-64
2022/11/10 09:32:56;;;;;;;15.90;6.93;;;13.30;99.90;;;;;;5054152;28;20115;-65
2022/11/10 09:35:22;;;;;;;22.05;5.82;;;13.60;99.90;;;;;;5041548;28;20041;-64
2022/11/10 09:37:48;;;;;;;14.02;4.93;;;13.60;99.90;;;;;;5037537;28;20094;-63
2022/11/10 09:40:21;;;;;;;17.58;6.10;;;13.30;99.90;;;;;;5053822;28;20119;-64
2022/11/10 09:42:47;;;;;;;20.10;7.88;;;13.30;99.90;;;;;;5036408;28;20037;-64
2022/11/10 09:45:27;;;;;;;20.02;5.80;;;13.10;99.90;;;;;;5033818;28;20034;-63
2022/11/10 09:48:14;;;;;;;16.33;5.65;;;13.00;99.90;;;;;;5033921;28;20542;-64
2022/11/10 09:50:47;;;;;;;17.13;5.35;;;12.80;99.90;;;;;;5038985;28;20037;-63
2022/11/10 09:53:24;;;;;;;19.73;6.10;;;12.90;99.90;;;;;;5033197;28;20033;-63
2022/11/10 09:55:57;;;;;;;17.85;5.50;;;12.70;99.90;;;;;;5031672;28;20077;-64
2022/11/10 09:58:30;;;;;;;18.45;5.60;;;12.90;99.90;;;;;;5031906;28;20037;-63
2022/11/10 10:01:13;;;;;;;19.52;6.13;;;12.90;99.90;;;;;;5031739;28;20045;-63
2022/11/10 10:03:46;;;;;;;22.77;6.43;;;13.10;99.90;;;;;;5031903;28;20467;-63
2022/11/10 10:06:13;;;;;;;24.35;7.10;;;13.10;99.90;;;;;;5031711;28;20518;-63
2022/11/10 10:08:47;;;;;;;24.23;9.95;;;13.20;99.90;;;;;;5034937;28;20092;-64
2022/11/10 10:11:35;;;;;;;31.38;9.15;;;13.50;99.90;;;;;;5015414;28;20076;-63
2022/11/10 10:14:29;;;;;;;25.92;10.05;;;13.40;99.90;;;;;;5031836;28;20461;-63
2022/11/10 10:17:21;;;;;;;25.58;10.85;;;13.30;99.90;;;;;;5032463;28;20072;-62
2022/11/10 10:20:00;;;;;;;26.27;11.30;;;;;;;;;;5015215;28;20400;-63
2022/11/10 10:23:03;;;;;;;34.08;13.10;;;13.10;99.90;;;;;;5031221;28;20049;-62
2022/11/10 10:25:31;;;;;;;34.65;12.45;;;13.30;99.90;;;;;;5031577;28;20079;-63
2022/11/10 10:28:05;;;;;;;29.70;12.73;;;13.20;99.90;;;;;;5030952;28;20049;-63
2022/11/10 10:30:31;;;;;;;24.77;10.38;;;13.30;99.90;;;;;;5032599;28;20399;-63
2022/11/10 10:33:07;;;;;;;30.02;11.27;;;13.30;99.90;;;;;;5032165;28;20038;-63
2022/11/10 10:35:33;;;;;;;28.17;10.63;;;13.20;99.90;;;;;;5045260;28;20076;-62
2022/11/10 10:38:01;;;;;;;31.40;10.05;;;13.30;99.90;;;;;;5033446;28;20041;-63
2022/11/10 10:40:26;;;;;;;30.65;8.80;;;13.20;99.90;;;;;;5032394;28;20091;-61
2022/11/10 10:42:52;;;;;;;23.02;7.82;;;13.20;99.90;;;;;;5046929;28;20112;-60
2022/11/10 10:45:19;;;;;;;20.73;7.40;;;13.20;99.90;;;;;;5031930;28;20503;-60
2022/11/10 10:47:48;;;;;;;21.05;7.88;;;13.30;99.90;;;;;;5035911;28;20038;-62
2022/11/10 10:50:22;;;;;;;21.95;7.47;;;13.10;99.90;;;;;;5045083;28;20427;-62
2022/11/10 10:53:19;;;;;;;19.13;6.05;;;13.10;99.90;;;;;;5033536;28;20041;-61
2022/11/10 10:55:51;;;;;;;15.35;7.38;;;13.00;99.90;;;;;;5038822;28;20045;-64
2022/11/10 10:58:26;;;;;;;16.80;5.70;;;13.20;99.90;;;;;;5034923;28;20515;-61
2022/11/10 11:01:19;;;;;;;29.48;6.47;;;13.10;99.90;;;;;;5038532;28;20049;-61
2022/11/10 11:03:48;;;;;;;21.15;5.75;;;13.10;99.90;;;;;;5033111;28;20053;-61
2022/11/10 11:06:17;;;;;;;19.98;4.80;;;13.00;99.90;;;;;;5039251;28;20506;-62
2022/11/10 11:08:52;;;;;;;18.90;6.18;;;13.00;99.90;;;;;;5036607;28;20042;-60
2022/11/10 11:11:17;;;;;;;18.98;4.28;;;13.00;99.90;;;;;;5032944;28;20037;-60
2022/11/10 11:13:43;;;;;;;14.60;5.30;;;13.00;99.90;;;;;;5034331;28;20107;-61
2022/11/10 11:16:11;;;;;;;22.10;6.38;;;13.10;99.90;;;;;;5036003;28;20045;-61
2022/11/10 11:18:39;;;;;;;20.27;5.85;;;13.30;99.90;;;;;;5032795;28;20404;-61
2022/11/10 11:21:23;;;;;;;26.10;5.88;;;13.10;99.90;;;;;;5032490;28;20042;-62
2022/11/10 11:23:59;;;;;;;19.75;4.97;;;13.10;99.90;;;;;;5031823;28;20053;-61
2022/11/10 11:26:58;;;;;;;18.98;4.68;;;13.10;99.90;;;;;;5037102;28;20053;-61
2022/11/10 11:29:45;;;;;;;16.02;4.32;;;13.20;99.90;;;;;;5032391;28;20095;-61
2022/11/10 11:32:40;;;;;;;13.57;4.43;;;13.20;99.90;;;;;;5031415;28;20041;-60
2022/11/10 11:35:31;;;;;;;18.58;4.38;;;13.40;99.90;;;;;;5035407;28;20053;-60
2022/11/10 11:38:06;;;;;;;12.32;4.70;;;13.30;99.90;;;;;;5035881;28;20043;-62
2022/11/10 11:40:50;;;;;;;16.85;4.90;;;13.30;99.90;;;;;;5039298;28;20079;-60
2022/11/10 11:43:33;;;;;;;17.50;4.28;;;13.30;99.90;;;;;;5047734;28;20430;-59
2022/11/10 11:46:08;;;;;;;22.48;5.75;;;13.10;99.90;;;;;;5043165;28;20037;-60
2022/11/10 11:48:52;;;;;;;23.70;4.75;;;13.30;99.90;;;;;;5034990;28;20041;-60
2022/11/10 11:51:39;;;;;;;19.92;3.85;;;13.30;99.90;;;;;;5046825;28;20159;-62
2022/11/10 11:54:37;;;;;;;17.58;4.30;;;13.20;99.90;;;;;;5039504;28;20052;-64
2022/11/10 11:57:15;;;;;;;22.50;4.65;;;13.40;99.90;;;;;;5034716;28;20049;-62
2022/11/10 12:00:15;;;;;;;18.08;4.32;;;13.30;99.90;;;;;;5038232;28;20048;-62
2022/11/10 12:03:28;;;;;;;19.75;4.50;;;13.20;99.90;;;;;;5046772;28;20055;-61
2022/11/10 12:06:15;;;;;;;21.35;4.32;;;13.10;99.90;;;;;;5003177;28;20053;-61
2022/11/10 12:09:00;;;;;;;15.30;3.65;;;13.20;99.90;;;;;;4977765;28;20097;-62
2022/11/10 12:11:53;;;;;;;19.05;4.10;;;13.10;99.90;;;;;;5029146;28;20053;-62
2022/11/10 12:14:26;;;;;;;17.90;3.65;;;13.20;99.90;;;;;;5050955;28;20486;-62
2022/11/10 12:17:14;;;;;;;16.52;3.47;;;13.30;99.90;;;;;;5041461;28;20041;-63
2022/11/10 12:20:09;;;;;;;20.13;4.15;;;13.30;99.90;;;;;;5043470;28;20056;-61
2022/11/10 12:22:54;;;;;;;19.30;3.40;;;13.40;99.90;;;;;;5014978;28;20399;-62
2022/11/10 12:25:26;;;;;;;19.35;4.03;;;13.30;99.90;;;;;;5034663;28;20068;-61
2022/11/10 12:28:00;;;;;;;17.35;3.55;;;13.50;99.90;;;;;;5043632;28;20048;-61
2022/11/10 12:30:28;;;;;;;12.80;3.03;;;13.50;99.90;;;;;;5047817;28;20033;-63
2022/11/10 12:33:28;;;;;;;27.80;4.65;;;13.50;99.90;;;;;;5036030;28;20123;-62
2022/11/10 12:35:56;;;;;;;15.77;3.20;;;13.60;99.90;;;;;;5038954;28;20048;-62
2022/11/10 12:38:52;;;;;;;18.65;3.50;;;13.70;99.90;;;;;;5040994;28;20102;-61
2022/11/10 12:41:19;;;;;;;;;;;13.70;99.90;;;;;;5035701;28;20492;-61
2022/11/10 12:44:02;;;;;;;24.13;3.40;;;13.50;99.90;;;;;;5042164;28;19962;-61
2022/11/10 12:46:27;;;;;;;17.40;3.20;;;13.50;99.90;;;;;;5047862;28;20122;-63
2022/11/10 12:49:08;;;;;;;16.65;3.67;;;13.60;99.90;;;;;;5038160;28;20124;-61
2022/11/10 12:51:55;;;;;;;29.25;4.03;;;13.50;99.90;;;;;;5042285;28;20040;-61
2022/11/10 12:54:25;;;;;;;21.77;3.92;;;13.50;99.90;;;;;;5037281;28;20325;-61
2022/11/10 12:56:56;;;;;;;16.27;4.28;;;13.50;99.90;;;;;;5033358;28;20381;-60
2022/11/10 12:59:25;;;;;;;20.13;3.95;;;13.40;99.90;;;;;;5035605;28;20041;-61
2022/11/10 13:01:59;;;;;;;18.85;3.95;;;13.40;99.90;;;;;;5037025;28;20565;-61
2022/11/10 13:04:25;;;;;;;16.02;3.60;;;13.60;99.90;;;;;;5035258;28;20049;-61
2022/11/10 13:07:03;;;;;;;20.00;3.58;;;13.60;99.90;;;;;;5039474;28;20041;-61
2022/11/10 13:09:35;;;;;;;14.90;3.08;;;13.70;99.90;;;;;;5040659;28;20056;-61